Sant Marti, Spain
Current Conditions -  °F | °C
As of 6:30 PM on Wednesday 22 Oct 2014 (Local Time) from LELL Reporting Station
Few Clouds Few Clouds  
Wind Chill: 68°   Ceiling: Unl
Heat Index: 68°   Visibility: 6mi
Dew Point: 57°   Wind: 9mph
Humidity: 68%   Direction: 120°ESE
Pressure: 30.15"   Gusts: NA
Location:  41.42°N, 2.2°E
Report Text: LELL 221630Z 12008KT 090V150 9999 FEW020 20/14 Q1021
Loading
Personal Weather Stations






























Interactive Weather Map
Tropical Storm Tracking
New forecast layout! Learn more

10-Day Weather Forecast

Advertisements
Track Severe Weather on mobile